createdAt,value
2019-05-05T00:00:00.322Z,6.26
2019-05-05T00:03:14.669Z,5.93
2019-05-05T00:06:17.628Z,6.10
2019-05-05T00:09:20.535Z,6.11
2019-05-05T00:12:38.876Z,6.00
2019-05-05T00:16:01.320Z,5.50
2019-05-05T00:19:04.866Z,5.42
2019-05-05T00:22:07.873Z,5.63
2019-05-05T00:25:14.317Z,5.52
2019-05-05T00:28:17.515Z,5.73
2019-05-05T00:31:20.419Z,5.70
2019-05-05T00:34:24.453Z,5.95
2019-05-05T00:37:28.035Z,5.69
2019-05-05T00:40:30.952Z,5.58
2019-05-05T00:43:34.562Z,6.07
2019-05-05T00:47:05.906Z,5.77
2019-05-05T00:50:11.291Z,5.66
2019-05-05T00:53:14.713Z,5.94
2019-05-05T00:56:17.731Z,5.93
2019-05-05T00:59:22.585Z,5.97
2019-05-05T01:02:35.281Z,5.94
2019-05-05T01:06:04.550Z,5.60
2019-05-05T01:09:12.187Z,6.12
2019-05-05T01:12:15.947Z,6.12
2019-05-05T01:15:19.223Z,5.62
2019-05-05T01:18:22.171Z,5.97
2019-05-05T01:21:26.188Z,6.16
2019-05-05T01:24:29.352Z,6.22
2019-05-05T01:27:34.603Z,5.28
2019-05-05T01:30:39.601Z,5.73
2019-05-05T01:34:02.100Z,5.74
2019-05-05T01:37:11.968Z,5.50
2019-05-05T01:40:24.865Z,5.67
2019-05-05T01:43:27.809Z,5.93
2019-05-05T01:46:30.726Z,5.83
2019-05-05T01:49:34.515Z,5.76
2019-05-05T01:52:37.802Z,5.79
2019-05-05T01:55:40.659Z,5.71
2019-05-05T01:58:44.259Z,5.76
2019-05-05T02:01:47.141Z,5.77
2019-05-05T02:04:50.013Z,5.85
2019-05-05T02:07:52.892Z,5.50
2019-05-05T02:10:55.762Z,5.44
2019-05-05T02:13:58.654Z,5.53
2019-05-05T02:17:01.531Z,5.77
2019-05-05T02:20:05.584Z,5.76
2019-05-05T02:23:09.707Z,5.93
2019-05-05T02:26:12.574Z,5.83
2019-05-05T02:29:25.076Z,6.02
2019-05-05T02:32:40.863Z,5.93
2019-05-05T02:35:45.936Z,6.10
2019-05-05T02:38:49.095Z,6.26
2019-05-05T02:41:54.817Z,6.15
2019-05-05T02:45:04.997Z,6.35
2019-05-05T02:48:15.263Z,6.37
2019-05-05T02:51:18.836Z,6.43
2019-05-05T02:54:24.740Z,6.38
2019-05-05T02:57:27.902Z,6.27
2019-05-05T03:00:50.285Z,6.34
2019-05-05T03:03:54.259Z,6.43
2019-05-05T03:07:00.630Z,6.55
2019-05-05T03:10:03.999Z,6.31
2019-05-05T03:13:07.283Z,6.34
2019-05-05T03:16:18.490Z,6.64
2019-05-05T03:19:23.629Z,6.43
2019-05-05T03:22:27.373Z,6.75
2019-05-05T03:25:30.625Z,6.49
2019-05-05T03:28:43.890Z,6.55
2019-05-05T03:31:49.806Z,6.61
2019-05-05T03:34:53.754Z,6.49
2019-05-05T03:37:56.741Z,6.38
2019-05-05T03:41:03.482Z,6.66
2019-05-05T03:44:21.064Z,6.64
2019-05-05T03:47:24.424Z,6.54
2019-05-05T03:50:27.584Z,6.45
2019-05-05T03:53:30.506Z,6.46
2019-05-05T03:56:34.691Z,6.44
2019-05-05T03:59:40.455Z,6.59
2019-05-05T04:02:48.797Z,6.53
2019-05-05T04:05:55.014Z,6.60
2019-05-05T04:08:57.891Z,6.58
2019-05-05T04:12:00.744Z,6.48
2019-05-05T04:15:04.101Z,6.48
2019-05-05T04:18:11.738Z,6.50
2019-05-05T04:21:14.655Z,6.59
2019-05-05T04:24:18.275Z,6.69
2019-05-05T04:27:21.249Z,6.59
2019-05-05T04:30:24.328Z,6.54
2019-05-05T04:33:27.187Z,6.61
2019-05-05T04:36:30.059Z,6.73
2019-05-05T04:39:34.289Z,6.54
2019-05-05T04:42:37.404Z,6.62
2019-05-05T04:45:40.553Z,6.72
2019-05-05T04:49:06.811Z,6.72
2019-05-05T04:52:11.774Z,6.77
2019-05-05T04:55:14.668Z,6.72
2019-05-05T04:58:17.537Z,6.60
2019-05-05T05:01:20.390Z,6.69
2019-05-05T05:04:30.993Z,6.73
2019-05-05T05:07:34.478Z,6.79
2019-05-05T05:10:37.592Z,6.90
2019-05-05T05:13:40.516Z,6.94
2019-05-05T05:16:43.860Z,6.89
2019-05-05T05:19:46.755Z,6.72
2019-05-05T05:22:49.685Z,6.87
2019-05-05T05:25:54.447Z,6.61
2019-05-05T05:28:57.439Z,6.89
2019-05-05T05:32:00.344Z,6.99
2019-05-05T05:35:03.811Z,7.00
2019-05-05T05:38:07.229Z,6.90
2019-05-05T05:41:13.650Z,6.95
2019-05-05T05:44:31.055Z,6.85
2019-05-05T05:47:53.650Z,6.89
2019-05-05T05:51:04.213Z,6.92
2019-05-05T05:54:07.409Z,6.97
2019-05-05T05:57:10.339Z,6.95
2019-05-05T06:00:14.545Z,7.00
2019-05-05T06:03:17.592Z,7.04
2019-05-05T06:06:21.615Z,6.98
2019-05-05T06:09:24.528Z,6.89
2019-05-05T06:12:27.454Z,6.93
2019-05-05T06:15:30.401Z,7.08
2019-05-05T06:18:34.587Z,7.16
2019-05-05T06:21:37.766Z,7.16
2019-05-05T06:24:41.175Z,7.16
2019-05-05T06:27:45.855Z,7.39
2019-05-05T06:30:48.797Z,7.46
2019-05-05T06:33:51.704Z,7.40
2019-05-05T06:36:54.625Z,7.31
2019-05-05T06:40:00.574Z,7.47
2019-05-05T06:43:14.531Z,7.41
2019-05-05T06:46:23.512Z,7.52
2019-05-05T06:49:27.107Z,7.62
2019-05-05T06:52:42.003Z,7.53
2019-05-05T06:55:34.873Z,7.64
2019-05-05T06:58:37.816Z,7.63
2019-05-05T07:01:40.742Z,7.67
2019-05-05T07:04:44.525Z,7.76
2019-05-05T07:07:47.687Z,7.83
2019-05-05T07:10:51.693Z,7.73
2019-05-05T07:13:54.624Z,7.80
2019-05-05T07:16:57.566Z,7.60
2019-05-05T07:20:00.487Z,7.68
2019-05-05T07:23:05.307Z,7.63
2019-05-05T07:26:08.223Z,7.69
2019-05-05T07:29:11.168Z,7.71
2019-05-05T07:32:15.265Z,7.65
2019-05-05T07:35:53.414Z,7.61
2019-05-05T07:38:46.909Z,7.58
2019-05-05T07:41:50.194Z,7.55
2019-05-05T07:44:54.676Z,7.68
2019-05-05T07:47:57.838Z,7.65
2019-05-05T07:51:04.456Z,7.56
2019-05-05T07:54:05.601Z,7.71
2019-05-05T07:57:09.296Z,7.84
2019-05-05T08:00:14.667Z,7.87
2019-05-05T08:03:18.339Z,7.92
2019-05-05T08:06:21.281Z,7.98
2019-05-05T08:09:24.871Z,7.96
2019-05-05T08:12:28.108Z,8.01
2019-05-05T08:15:31.148Z,8.01
2019-05-05T08:18:54.519Z,7.97
2019-05-05T08:21:59.354Z,8.41
2019-05-05T08:25:35.926Z,8.65
2019-05-05T08:28:45.482Z,8.89
2019-05-05T08:32:19.258Z,8.73
2019-05-05T08:35:23.791Z,8.92
2019-05-05T08:38:26.864Z,8.96
2019-05-05T08:41:29.805Z,8.86
2019-05-05T08:44:34.266Z,8.90
2019-05-05T08:47:37.448Z,9.05
2019-05-05T08:50:40.416Z,8.85
2019-05-05T08:53:47.888Z,8.76
2019-05-05T08:56:48.492Z,8.81
2019-05-05T08:59:51.621Z,9.03
2019-05-05T09:02:55.268Z,9.33
2019-05-05T09:05:58.507Z,9.72
2019-05-05T09:09:03.746Z,9.83
2019-05-05T09:12:08.085Z,9.62
2019-05-05T09:15:13.475Z,9.63
2019-05-05T09:18:16.290Z,9.48
2019-05-05T09:21:19.417Z,9.45
2019-05-05T09:24:28.620Z,9.37
2019-05-05T09:27:45.249Z,9.25
2019-05-05T09:30:49.564Z,8.94
2019-05-05T09:33:53.689Z,8.62
2019-05-05T09:36:58.161Z,8.48
2019-05-05T09:40:01.425Z,8.33
2019-05-05T09:43:05.953Z,8.44
2019-05-05T09:46:09.211Z,8.32
2019-05-05T09:49:14.055Z,8.40
2019-05-05T09:52:17.857Z,8.54
2019-05-05T09:55:21.726Z,8.81
2019-05-05T09:58:24.651Z,9.32
2019-05-05T10:01:28.032Z,9.61
2019-05-05T10:04:31.708Z,10.06
2019-05-05T10:07:34.702Z,10.39
2019-05-05T10:10:37.639Z,10.66
2019-05-05T10:13:40.550Z,11.28
2019-05-05T10:16:43.496Z,10.74
2019-05-05T10:19:46.406Z,10.28
2019-05-05T10:22:49.707Z,10.11
2019-05-05T10:25:55.574Z,10.03
2019-05-05T10:29:04.198Z,10.18
2019-05-05T10:32:07.190Z,10.24
2019-05-05T10:35:10.892Z,10.37
2019-05-05T10:38:14.422Z,10.24
2019-05-05T10:41:17.796Z,9.82
2019-05-05T10:44:20.657Z,9.39
2019-05-05T10:47:24.169Z,9.18
2019-05-05T10:50:27.192Z,9.12
2019-05-05T10:53:30.168Z,9.09
2019-05-05T10:56:34.555Z,9.07
2019-05-05T10:59:37.432Z,9.18
2019-05-05T11:02:40.304Z,9.21
2019-05-05T11:05:44.808Z,9.33
2019-05-05T11:08:49.264Z,9.48
2019-05-05T11:11:52.112Z,9.43
2019-05-05T11:14:55.002Z,9.26
2019-05-05T11:17:57.980Z,9.30
2019-05-05T11:21:00.847Z,9.29
2019-05-05T11:24:03.729Z,9.34
2019-05-05T11:27:06.597Z,9.23
2019-05-05T11:30:14.304Z,9.17
2019-05-05T11:33:35.847Z,9.13
2019-05-05T11:36:58.324Z,9.22
2019-05-05T11:40:01.209Z,9.36
2019-05-05T11:43:04.162Z,9.63
2019-05-05T11:46:07.034Z,9.73
2019-05-05T11:49:09.913Z,9.85
2019-05-05T11:52:12.775Z,10.10
2019-05-05T11:55:16.056Z,10.51
2019-05-05T11:58:18.914Z,11.28
2019-05-05T12:01:21.793Z,12.28
2019-05-05T12:04:24.768Z,12.63
2019-05-05T12:07:28.772Z,12.98
2019-05-05T12:10:54.481Z,13.05
2019-05-05T12:13:58.049Z,13.35
2019-05-05T12:17:00.948Z,13.62
2019-05-05T12:20:07.949Z,13.92
2019-05-05T12:23:10.903Z,14.07
2019-05-05T12:26:28.350Z,13.98
2019-05-05T12:29:37.904Z,12.58
2019-05-05T12:32:40.776Z,11.37
2019-05-05T12:35:44.603Z,10.74
2019-05-05T12:38:47.712Z,10.20
2019-05-05T12:41:50.599Z,9.93
2019-05-05T12:44:58.954Z,9.68
2019-05-05T12:48:16.111Z,9.44
2019-05-05T12:51:18.998Z,9.24
2019-05-05T12:54:21.866Z,9.32
2019-05-05T12:57:24.753Z,9.39
2019-05-05T13:00:27.743Z,9.44
2019-05-05T13:03:30.611Z,9.61
2019-05-05T13:06:34.603Z,9.58
2019-05-05T13:09:37.672Z,9.59
2019-05-05T13:12:40.942Z,9.60
2019-05-05T13:15:44.362Z,9.80
2019-05-05T13:18:47.309Z,9.85
2019-05-05T13:22:08.990Z,9.96
2019-05-05T13:25:25.236Z,10.14
2019-05-05T13:28:28.141Z,10.22
2019-05-05T13:31:31.036Z,10.33
2019-05-05T13:34:33.892Z,11.01
2019-05-05T13:37:36.778Z,11.62
2019-05-05T13:40:39.754Z,11.39
2019-05-05T13:43:43.018Z,11.75
2019-05-05T13:46:45.991Z,12.83
2019-05-05T13:49:48.944Z,12.93
2019-05-05T13:52:52.195Z,12.17
2019-05-05T13:56:08.595Z,11.79
2019-05-05T13:58:59.939Z,11.75
2019-05-05T14:02:03.033Z,11.36
2019-05-05T14:05:06.119Z,11.13
2019-05-05T14:08:10.199Z,11.18
2019-05-05T14:11:14.236Z,10.91
2019-05-05T14:14:17.469Z,11.18
2019-05-05T14:17:20.409Z,11.56
2019-05-05T14:20:23.944Z,11.83
2019-05-05T14:23:28.169Z,12.65
2019-05-05T14:26:32.409Z,13.30
2019-05-05T14:29:56.672Z,12.72
2019-05-05T14:32:59.701Z,12.06
2019-05-05T14:36:21.077Z,11.60
2019-05-05T14:39:24.047Z,11.33
2019-05-05T14:42:26.920Z,10.93
2019-05-05T14:45:29.799Z,10.69
2019-05-05T14:48:34.043Z,10.58
2019-05-05T14:51:37.430Z,10.43
2019-05-05T14:54:40.289Z,10.50
2019-05-05T14:57:44.062Z,10.58
2019-05-05T15:00:47.074Z,10.70
2019-05-05T15:03:49.928Z,10.76
2019-05-05T15:07:05.512Z,11.10
2019-05-05T15:10:45.876Z,10.93
2019-05-05T15:13:48.849Z,10.76
2019-05-05T15:16:51.724Z,10.72
2019-05-05T15:19:55.676Z,10.52
2019-05-05T15:22:59.564Z,10.49
2019-05-05T15:26:04.363Z,10.43
2019-05-05T15:29:07.213Z,10.39
2019-05-05T15:32:10.108Z,10.31
2019-05-05T15:35:14.388Z,10.32
2019-05-05T15:38:18.442Z,10.26
2019-05-05T15:41:21.351Z,10.23
2019-05-05T15:44:24.369Z,10.12
2019-05-05T15:47:27.468Z,10.02
2019-05-05T15:50:30.735Z,10.01
2019-05-05T15:53:33.614Z,10.03
2019-05-05T15:56:36.481Z,10.00
2019-05-05T15:59:39.741Z,10.00
2019-05-05T16:02:44.188Z,9.95
2019-05-05T16:05:47.208Z,9.93
2019-05-05T16:08:50.090Z,9.91
2019-05-05T16:11:54.605Z,9.93
2019-05-05T16:15:35.667Z,9.96
2019-05-05T16:19:14.058Z,9.92
2019-05-05T16:22:25.484Z,9.80
2019-05-05T16:25:29.507Z,9.92
2019-05-05T16:28:34.136Z,10.07
2019-05-05T16:31:37.153Z,10.53
2019-05-05T16:34:40.066Z,10.68
2019-05-05T16:37:42.922Z,10.83
2019-05-05T16:40:46.917Z,10.93
2019-05-05T16:43:49.783Z,10.93
2019-05-05T16:46:53.958Z,10.81
2019-05-05T16:49:57.056Z,10.75
2019-05-05T16:53:04.175Z,10.61
2019-05-05T16:56:10.841Z,10.74
2019-05-05T16:59:13.901Z,10.83
2019-05-05T17:02:18.777Z,11.00
2019-05-05T17:05:21.674Z,10.98
2019-05-05T17:08:24.608Z,10.58
2019-05-05T17:11:27.504Z,10.59
2019-05-05T17:14:38.439Z,10.55
2019-05-05T17:17:49.579Z,10.40
2019-05-05T17:20:59.702Z,10.29
2019-05-05T17:24:02.565Z,10.24
2019-05-05T17:27:05.742Z,10.23
2019-05-05T17:30:09.720Z,10.19
2019-05-05T17:33:14.437Z,10.07
2019-05-05T17:36:17.662Z,10.12
2019-05-05T17:39:23.701Z,10.12
2019-05-05T17:42:38.659Z,10.17
2019-05-05T17:46:16.417Z,9.98
2019-05-05T17:49:26.990Z,10.08
2019-05-05T17:52:55.834Z,9.88
2019-05-05T17:55:59.031Z,9.90
2019-05-05T17:59:03.481Z,9.85
2019-05-05T18:02:06.482Z,9.85
2019-05-05T18:05:09.478Z,9.87
2019-05-05T18:08:30.813Z,9.83
2019-05-05T18:11:41.806Z,9.86
2019-05-05T18:14:44.945Z,9.89
2019-05-05T18:17:47.805Z,9.86
2019-05-05T18:20:51.783Z,9.73
2019-05-05T18:23:54.738Z,9.74
2019-05-05T18:26:57.958Z,9.75
2019-05-05T18:30:03.837Z,9.71
2019-05-05T18:33:06.626Z,9.82
2019-05-05T18:36:09.530Z,9.74
2019-05-05T18:39:13.763Z,9.82
2019-05-05T18:42:20.488Z,9.86
2019-05-05T18:45:23.781Z,9.87
2019-05-05T18:48:26.841Z,9.89
2019-05-05T18:51:29.708Z,9.85
2019-05-05T18:54:34.007Z,9.83
2019-05-05T18:57:36.918Z,9.82
2019-05-05T19:01:08.538Z,9.75
2019-05-05T19:04:45.214Z,9.71
2019-05-05T19:08:06.425Z,9.73
2019-05-05T19:11:09.305Z,9.68
2019-05-05T19:14:13.961Z,9.69
2019-05-05T19:17:16.966Z,9.66
2019-05-05T19:20:45.341Z,9.63
2019-05-05T19:23:49.402Z,9.55
2019-05-05T19:26:54.205Z,9.53
2019-05-05T19:29:57.178Z,9.43
2019-05-05T19:33:00.036Z,9.38
2019-05-05T19:36:04.924Z,9.35
2019-05-05T19:39:07.694Z,9.11
2019-05-05T19:42:14.423Z,9.02
2019-05-05T19:45:17.351Z,9.02
2019-05-05T19:48:20.713Z,9.00
2019-05-05T19:51:23.979Z,8.74
2019-05-05T19:54:27.025Z,8.78
2019-05-05T19:57:30.996Z,8.61
2019-05-05T20:00:35.174Z,8.65
2019-05-05T20:03:38.962Z,8.55
2019-05-05T20:06:43.993Z,8.55
2019-05-05T20:09:46.773Z,8.56
2019-05-05T20:12:49.664Z,8.74
2019-05-05T20:15:59.476Z,8.90
2019-05-05T20:19:04.214Z,8.93
2019-05-05T20:22:07.212Z,8.97
2019-05-05T20:25:10.211Z,8.99
2019-05-05T20:28:14.511Z,8.99
2019-05-05T20:31:17.529Z,9.04
2019-05-05T20:34:28.235Z,9.01
2019-05-05T20:37:50.847Z,9.03
2019-05-05T20:41:10.732Z,9.01
2019-05-05T20:44:14.804Z,8.94
2019-05-05T20:47:17.689Z,8.87
2019-05-05T20:50:20.546Z,8.84
2019-05-05T20:53:24.682Z,8.83
2019-05-05T20:56:27.707Z,8.68
2019-05-05T20:59:31.273Z,8.47
2019-05-05T21:02:34.342Z,8.27
2019-05-05T21:05:37.193Z,8.17
2019-05-05T21:08:40.406Z,8.13
2019-05-05T21:11:43.786Z,8.04
2019-05-05T21:14:46.841Z,8.02
2019-05-05T21:17:50.047Z,8.00
2019-05-05T21:20:54.667Z,7.96
2019-05-05T21:23:59.434Z,7.92
2019-05-05T21:27:04.329Z,8.00
2019-05-05T21:30:07.325Z,7.85
2019-05-05T21:33:10.186Z,7.66
2019-05-05T21:36:14.746Z,7.61
2019-05-05T21:39:17.865Z,7.74
2019-05-05T21:42:21.162Z,7.46
2019-05-05T21:45:24.028Z,7.41
2019-05-05T21:48:27.134Z,7.59
2019-05-05T21:51:53.960Z,7.67
2019-05-05T21:55:06.592Z,7.60
2019-05-05T21:58:29.070Z,7.51
2019-05-05T22:01:40.034Z,7.66
2019-05-05T22:04:38.597Z,7.84
2019-05-05T22:07:41.477Z,7.87
2019-05-05T22:10:44.356Z,7.93
2019-05-05T22:13:47.212Z,8.01
2019-05-05T22:16:50.089Z,8.00
2019-05-05T22:20:04.341Z,8.01
2019-05-05T22:23:07.321Z,7.91
2019-05-05T22:26:10.292Z,7.80
2019-05-05T22:29:14.139Z,7.51
2019-05-05T22:32:17.949Z,7.69
2019-05-05T22:35:20.852Z,7.73
2019-05-05T22:38:24.558Z,7.51
2019-05-05T22:41:27.573Z,7.44
2019-05-05T22:44:30.425Z,7.13
2019-05-05T22:47:34.480Z,7.12
2019-05-05T22:50:37.577Z,7.12
2019-05-05T22:53:40.807Z,7.26
2019-05-05T22:56:44.799Z,7.08
2019-05-05T22:59:47.845Z,7.07
2019-05-05T23:02:55.922Z,7.08
2019-05-05T23:06:04.325Z,6.93
2019-05-05T23:09:11.527Z,6.98
2019-05-05T23:12:14.607Z,6.94
2019-05-05T23:15:17.475Z,6.65
2019-05-05T23:18:25.783Z,6.78
2019-05-05T23:21:37.384Z,6.63
2019-05-05T23:24:46.658Z,6.70
2019-05-05T23:27:49.881Z,6.91
2019-05-05T23:30:54.664Z,6.74
2019-05-05T23:33:57.518Z,6.71
2019-05-05T23:37:00.394Z,6.59
2019-05-05T23:40:03.988Z,6.50
2019-05-05T23:43:06.866Z,6.64
2019-05-05T23:46:09.712Z,6.59
2019-05-05T23:49:13.769Z,6.57
2019-05-05T23:52:16.747Z,6.62
2019-05-05T23:55:19.631Z,6.67
2019-05-05T23:58:23.983Z,6.54
